sensor_id;sensor_type;location;lat;lon;timestamp;pressure;altitude;pressure_sealevel;temperature;humidity
9110;BME280;4590;51.462;6.692;2023-02-03T00:00:35;102245.34;;;10.04;74.26
9110;BME280;4590;51.462;6.692;2023-02-03T00:03:00;102243.97;;;10.07;73.96
9110;BME280;4590;51.462;6.692;2023-02-03T00:05:26;102238.75;;;10.05;74.23
9110;BME280;4590;51.462;6.692;2023-02-03T00:07:52;102236.00;;;10.05;73.87
9110;BME280;4590;51.462;6.692;2023-02-03T00:10:18;102237.34;;;10.03;74.16
9110;BME280;4590;51.462;6.692;2023-02-03T00:12:47;102229.66;;;10.05;73.97
9110;BME280;4590;51.462;6.692;2023-02-03T00:15:13;102230.75;;;10.04;74.21
9110;BME280;4590;51.462;6.692;2023-02-03T00:17:38;102224.44;;;10.03;73.72
9110;BME280;4590;51.462;6.692;2023-02-03T00:20:04;102218.66;;;10.05;73.87
9110;BME280;4590;51.462;6.692;2023-02-03T00:22:29;102220.59;;;10.04;74.28
9110;BME280;4590;51.462;6.692;2023-02-03T00:24:55;102210.69;;;10.03;73.75
9110;BME280;4590;51.462;6.692;2023-02-03T00:27:20;102209.03;;;10.02;73.87
9110;BME280;4590;51.462;6.692;2023-02-03T00:29:45;102209.59;;;10.04;73.68
9110;BME280;4590;51.462;6.692;2023-02-03T00:32:10;102213.69;;;10.02;74.21
9110;BME280;4590;51.462;6.692;2023-02-03T00:34:36;102203.25;;;10.04;74.00
9110;BME280;4590;51.462;6.692;2023-02-03T00:37:01;102215.66;;;10.06;73.84
9110;BME280;4590;51.462;6.692;2023-02-03T00:39:26;102212.91;;;10.06;73.92
9110;BME280;4590;51.462;6.692;2023-02-03T00:41:51;102223.91;;;10.06;74.01
9110;BME280;4590;51.462;6.692;2023-02-03T00:44:17;102225.25;;;10.09;73.53
9110;BME280;4590;51.462;6.692;2023-02-03T00:46:42;102217.56;;;10.06;73.94
9110;BME280;4590;51.462;6.692;2023-02-03T00:49:07;102229.09;;;10.08;73.64
9110;BME280;4590;51.462;6.692;2023-02-03T00:51:33;102224.44;;;10.08;73.89
9110;BME280;4590;51.462;6.692;2023-02-03T00:53:58;102226.91;;;10.10;73.60
9110;BME280;4590;51.462;6.692;2023-02-03T00:56:24;102234.09;;;10.11;73.61
9110;BME280;4590;51.462;6.692;2023-02-03T00:58:49;102235.75;;;10.12;73.49
9110;BME280;4590;51.462;6.692;2023-02-03T01:01:15;102245.91;;;10.11;73.75
9110;BME280;4590;51.462;6.692;2023-02-03T01:03:40;102250.84;;;10.09;73.46
9110;BME280;4590;51.462;6.692;2023-02-03T01:06:10;102267.09;;;10.11;73.49
9110;BME280;4590;51.462;6.692;2023-02-03T01:08:35;102257.47;;;10.13;73.64
9110;BME280;4590;51.462;6.692;2023-02-03T01:11:09;102270.13;;;10.14;73.17
9110;BME280;4590;51.462;6.692;2023-02-03T01:13:34;102264.38;;;10.16;73.63
9110;BME280;4590;51.462;6.692;2023-02-03T01:16:00;102266.84;;;10.17;73.68
9110;BME280;4590;51.462;6.692;2023-02-03T01:18:25;102274.28;;;10.17;73.38
9110;BME280;4590;51.462;6.692;2023-02-03T01:20:50;102259.22;;;10.19;73.28
9110;BME280;4590;51.462;6.692;2023-02-03T01:23:16;102269.13;;;10.21;73.29
9110;BME280;4590;51.462;6.692;2023-02-03T01:25:41;102265.81;;;10.18;73.50
9110;BME280;4590;51.462;6.692;2023-02-03T01:28:06;102288.03;;;10.17;73.63
9110;BME280;4590;51.462;6.692;2023-02-03T01:30:32;102277.03;;;10.17;73.51
9110;BME280;4590;51.462;6.692;2023-02-03T01:32:57;102283.69;;;10.21;73.33
9110;BME280;4590;51.462;6.692;2023-02-03T01:35:22;102281.47;;;10.23;73.31
9110;BME280;4590;51.462;6.692;2023-02-03T01:37:47;102290.84;;;10.22;72.96
9110;BME280;4590;51.462;6.692;2023-02-03T01:40:13;102278.47;;;10.25;73.37
9110;BME280;4590;51.462;6.692;2023-02-03T01:42:38;102278.72;;;10.23;73.21
9110;BME280;4590;51.462;6.692;2023-02-03T01:45:04;102275.19;;;10.28;73.15
9110;BME280;4590;51.462;6.692;2023-02-03T01:47:30;102250.69;;;10.26;72.99
9110;BME280;4590;51.462;6.692;2023-02-03T01:52:43;102265.00;;;10.28;72.92
9110;BME280;4590;51.462;6.692;2023-02-03T01:55:11;102263.09;;;10.29;72.67
9110;BME280;4590;51.462;6.692;2023-02-03T01:57:55;102274.34;;;10.22;72.94
9110;BME280;4590;51.462;6.692;2023-02-03T02:00:21;102272.69;;;10.26;72.64
9110;BME280;4590;51.462;6.692;2023-02-03T02:02:47;102259.78;;;10.22;72.81
9110;BME280;4590;51.462;6.692;2023-02-03T02:05:19;102257.03;;;10.22;72.60
9110;BME280;4590;51.462;6.692;2023-02-03T02:07:47;102249.31;;;10.24;72.87
9110;BME280;4590;51.462;6.692;2023-02-03T02:10:12;102254.53;;;10.20;73.05
9110;BME280;4590;51.462;6.692;2023-02-03T02:12:38;102239.94;;;10.25;72.76
9110;BME280;4590;51.462;6.692;2023-02-03T02:15:04;102235.00;;;10.22;73.23
9110;BME280;4590;51.462;6.692;2023-02-03T02:18:25;102243.78;;;10.18;72.28
9110;BME280;4590;51.462;6.692;2023-02-03T02:24:16;102231.69;;;10.19;72.06
9110;BME280;4590;51.462;6.692;2023-02-03T02:29:56;102225.94;;;10.21;72.03
9110;BME280;4590;51.462;6.692;2023-02-03T02:35:46;102212.44;;;10.19;72.03
9110;BME280;4590;51.462;6.692;2023-02-03T02:40:59;102209.16;;;10.23;71.78
9110;BME280;4590;51.462;6.692;2023-02-03T02:43:37;102230.34;;;10.27;72.39
9110;BME280;4590;51.462;6.692;2023-02-03T02:48:40;102199.25;;;10.27;72.05
9110;BME280;4590;51.462;6.692;2023-02-03T02:51:10;102205.31;;;10.29;72.30
9110;BME280;4590;51.462;6.692;2023-02-03T02:53:40;102186.06;;;10.29;72.20
9110;BME280;4590;51.462;6.692;2023-02-03T02:56:09;102177.25;;;10.27;72.00
9110;BME280;4590;51.462;6.692;2023-02-03T02:58:37;102180.25;;;10.25;71.85
9110;BME280;4590;51.462;6.692;2023-02-03T03:01:04;102186.03;;;10.24;72.20
9110;BME280;4590;51.462;6.692;2023-02-03T03:03:30;102186.59;;;10.26;71.80
9110;BME280;4590;51.462;6.692;2023-02-03T03:08:35;102205.84;;;10.26;71.88
9110;BME280;4590;51.462;6.692;2023-02-03T03:11:03;102226.22;;;10.30;71.51
9110;BME280;4590;51.462;6.692;2023-02-03T03:13:31;102236.66;;;10.28;71.62
9110;BME280;4590;51.462;6.692;2023-02-03T03:15:59;102238.03;;;10.25;71.70
9110;BME280;4590;51.462;6.692;2023-02-03T03:18:29;102225.66;;;10.23;71.70
9110;BME280;4590;51.462;6.692;2023-02-03T03:20:58;102217.94;;;10.25;71.48
9110;BME280;4590;51.462;6.692;2023-02-03T03:23:36;102210.25;;;10.27;71.63
9110;BME280;4590;51.462;6.692;2023-02-03T03:29:05;102196.97;;;10.13;71.04
9110;BME280;4590;51.462;6.692;2023-02-03T03:31:31;102192.66;;;10.23;71.40
9110;BME280;4590;51.462;6.692;2023-02-03T03:33:57;102203.66;;;10.23;71.75
9110;BME280;4590;51.462;6.692;2023-02-03T03:36:26;102205.28;;;10.24;71.33
9110;BME280;4590;51.462;6.692;2023-02-03T03:39:04;102212.19;;;10.21;70.96
9110;BME280;4590;51.462;6.692;2023-02-03T03:42:09;102214.28;;;10.14;71.03
9110;BME280;4590;51.462;6.692;2023-02-03T03:44:43;102207.19;;;10.18;71.09
9110;BME280;4590;51.462;6.692;2023-02-03T03:47:15;102203.66;;;10.23;71.06
9110;BME280;4590;51.462;6.692;2023-02-03T03:49:44;102198.97;;;10.23;71.42
9110;BME280;4590;51.462;6.692;2023-02-03T03:52:15;102199.78;;;10.18;71.52
9110;BME280;4590;51.462;6.692;2023-02-03T03:54:43;102200.63;;;10.24;71.27
9110;BME280;4590;51.462;6.692;2023-02-03T03:57:21;102200.03;;;10.17;70.61
9110;BME280;4590;51.462;6.692;2023-02-03T03:59:48;102208.03;;;10.24;71.43
9110;BME280;4590;51.462;6.692;2023-02-03T04:02:16;102208.88;;;10.24;71.05
9110;BME280;4590;51.462;6.692;2023-02-03T04:04:43;102208.59;;;10.21;71.28
9110;BME280;4590;51.462;6.692;2023-02-03T04:07:12;102211.63;;;10.24;71.12
9110;BME280;4590;51.462;6.692;2023-02-03T04:09:37;102236.94;;;10.26;71.11
9110;BME280;4590;51.462;6.692;2023-02-03T04:12:04;102221.25;;;10.27;71.18
9110;BME280;4590;51.462;6.692;2023-02-03T04:14:31;102219.53;;;10.15;70.84
9110;BME280;4590;51.462;6.692;2023-02-03T04:16:57;102199.25;;;10.27;71.13
9110;BME280;4590;51.462;6.692;2023-02-03T04:19:23;102199.81;;;10.29;70.77
9110;BME280;4590;51.462;6.692;2023-02-03T04:21:49;102187.94;;;10.23;70.75
9110;BME280;4590;51.462;6.692;2023-02-03T04:24:14;102189.06;;;10.27;70.90
9110;BME280;4590;51.462;6.692;2023-02-03T04:26:39;102200.63;;;10.24;71.00
9110;BME280;4590;51.462;6.692;2023-02-03T04:29:05;102206.69;;;10.26;70.62
9110;BME280;4590;51.462;6.692;2023-02-03T04:31:30;102216.03;;;10.25;70.87
9110;BME280;4590;51.462;6.692;2023-02-03T04:33:56;102206.94;;;10.25;70.58
9110;BME280;4590;51.462;6.692;2023-02-03T04:36:21;102208.34;;;10.27;70.54
9110;BME280;4590;51.462;6.692;2023-02-03T04:38:49;102207.50;;;10.27;70.77
9110;BME280;4590;51.462;6.692;2023-02-03T04:41:15;102205.31;;;10.29;70.70
9110;BME280;4590;51.462;6.692;2023-02-03T04:43:41;102191.56;;;10.29;70.77
9110;BME280;4590;51.462;6.692;2023-02-03T04:46:06;102204.78;;;10.32;70.54
9110;BME280;4590;51.462;6.692;2023-02-03T04:48:31;102193.75;;;10.27;70.80
9110;BME280;4590;51.462;6.692;2023-02-03T04:51:05;102182.44;;;10.23;70.17
9110;BME280;4590;51.462;6.692;2023-02-03T04:53:31;102192.66;;;10.28;70.65
9110;BME280;4590;51.462;6.692;2023-02-03T04:55:57;102191.56;;;10.29;70.45
9110;BME280;4590;51.462;6.692;2023-02-03T04:58:22;102181.94;;;10.31;70.33
9110;BME280;4590;51.462;6.692;2023-02-03T05:00:47;102171.78;;;10.32;70.24
9110;BME280;4590;51.462;6.692;2023-02-03T05:03:13;102176.72;;;10.30;70.40
9110;BME280;4590;51.462;6.692;2023-02-03T05:05:38;102179.72;;;10.28;70.51
9110;BME280;4590;51.462;6.692;2023-02-03T05:08:04;102171.22;;;10.30;70.40
9110;BME280;4590;51.462;6.692;2023-02-03T05:10:29;102176.72;;;10.30;70.38
9110;BME280;4590;51.462;6.692;2023-02-03T05:12:54;102172.03;;;10.30;69.99
9110;BME280;4590;51.462;6.692;2023-02-03T05:15:19;102160.78;;;10.32;70.22
9110;BME280;4590;51.462;6.692;2023-02-03T05:17:45;102156.38;;;10.31;70.30
9110;BME280;4590;51.462;6.692;2023-02-03T05:20:10;102162.69;;;10.31;70.34
9110;BME280;4590;51.462;6.692;2023-02-03T05:22:36;102163.53;;;10.32;70.12
9110;BME280;4590;51.462;6.692;2023-02-03T05:25:02;102179.75;;;10.33;69.99
9110;BME280;4590;51.462;6.692;2023-02-03T05:27:28;102169.31;;;10.35;69.93
9110;BME280;4590;51.462;6.692;2023-02-03T05:29:53;102170.41;;;10.34;69.85
9110;BME280;4590;51.462;6.692;2023-02-03T05:32:18;102176.44;;;10.31;70.18
9110;BME280;4590;51.462;6.692;2023-02-03T05:34:43;102172.34;;;10.34;70.08
9110;BME280;4590;51.462;6.692;2023-02-03T05:37:09;102185.25;;;10.33;70.03
9110;BME280;4590;51.462;6.692;2023-02-03T05:39:34;102185.81;;;10.35;70.27
9110;BME280;4590;51.462;6.692;2023-02-03T05:41:59;102188.88;;;10.39;69.63
9110;BME280;4590;51.462;6.692;2023-02-03T05:44:26;102175.91;;;10.39;69.89
9110;BME280;4590;51.462;6.692;2023-02-03T05:46:54;102172.06;;;10.40;69.91
9110;BME280;4590;51.462;6.692;2023-02-03T05:49:20;102187.22;;;10.43;69.68
9110;BME280;4590;51.462;6.692;2023-02-03T05:51:47;102181.97;;;10.41;69.72
9110;BME280;4590;51.462;6.692;2023-02-03T05:54:13;102170.13;;;10.41;69.79
9110;BME280;4590;51.462;6.692;2023-02-03T05:56:38;102173.72;;;10.41;69.57
9110;BME280;4590;51.462;6.692;2023-02-03T05:59:04;102181.72;;;10.43;69.71
9110;BME280;4590;51.462;6.692;2023-02-03T06:01:30;102183.06;;;10.40;69.40
9110;BME280;4590;51.462;6.692;2023-02-03T06:03:55;102171.53;;;10.43;69.58
9110;BME280;4590;51.462;6.692;2023-02-03T06:06:20;102177.88;;;10.39;69.96
9110;BME280;4590;51.462;6.692;2023-02-03T06:08:46;102176.75;;;10.40;69.55
9110;BME280;4590;51.462;6.692;2023-02-03T06:11:11;102179.75;;;10.33;70.00
9110;BME280;4590;51.462;6.692;2023-02-03T06:13:37;102175.13;;;10.39;69.70
9110;BME280;4590;51.462;6.692;2023-02-03T06:16:03;102179.75;;;10.33;69.94
9110;BME280;4590;51.462;6.692;2023-02-03T06:18:28;102186.66;;;10.36;69.75
9110;BME280;4590;51.462;6.692;2023-02-03T06:20:53;102187.22;;;10.38;69.76
9110;BME280;4590;51.462;6.692;2023-02-03T06:23:19;102180.63;;;10.39;69.40
9110;BME280;4590;51.462;6.692;2023-02-03T06:25:46;102163.53;;;10.37;69.38
9110;BME280;4590;51.462;6.692;2023-02-03T06:28:12;102166.31;;;10.37;69.41
9110;BME280;4590;51.462;6.692;2023-02-03T06:30:37;102183.38;;;10.39;69.70
9110;BME280;4590;51.462;6.692;2023-02-03T06:33:03;102189.41;;;10.41;69.21
9110;BME280;4590;51.462;6.692;2023-02-03T06:35:28;102192.72;;;10.38;69.30
9110;BME280;4590;51.462;6.692;2023-02-03T06:37:53;102177.03;;;10.43;69.63
9110;BME280;4590;51.462;6.692;2023-02-03T06:40:19;102191.88;;;10.42;69.58
9110;BME280;4590;51.462;6.692;2023-02-03T06:42:45;102190.22;;;10.41;69.44
9110;BME280;4590;51.462;6.692;2023-02-03T06:45:11;102193.28;;;10.45;69.37
9110;BME280;4590;51.462;6.692;2023-02-03T06:47:40;102190.50;;;10.40;69.23
9110;BME280;4590;51.462;6.692;2023-02-03T06:50:06;102181.72;;;10.43;69.56
9110;BME280;4590;51.462;6.692;2023-02-03T06:52:32;102186.69;;;10.46;68.92
9110;BME280;4590;51.462;6.692;2023-02-03T06:54:57;102182.81;;;10.47;69.26
9110;BME280;4590;51.462;6.692;2023-02-03T06:57:22;102180.63;;;10.44;69.03
9110;BME280;4590;51.462;6.692;2023-02-03T06:59:48;102176.75;;;10.45;69.05
9110;BME280;4590;51.462;6.692;2023-02-03T07:02:13;102180.06;;;10.47;68.97
9110;BME280;4590;51.462;6.692;2023-02-03T07:04:38;102190.78;;;10.43;69.15
9110;BME280;4590;51.462;6.692;2023-02-03T07:07:04;102188.88;;;10.44;68.98
9110;BME280;4590;51.462;6.692;2023-02-03T07:09:29;102196.03;;;10.45;69.11
9110;BME280;4590;51.462;6.692;2023-02-03T07:11:54;102194.66;;;10.47;69.02
9110;BME280;4590;51.462;6.692;2023-02-03T07:14:19;102191.06;;;10.42;69.19
9110;BME280;4590;51.462;6.692;2023-02-03T07:16:45;102193.53;;;10.43;69.23
9110;BME280;4590;51.462;6.692;2023-02-03T07:19:10;102187.78;;;10.45;69.02
9110;BME280;4590;51.462;6.692;2023-02-03T07:21:35;102185.59;;;10.47;68.94
9110;BME280;4590;51.462;6.692;2023-02-03T07:24:01;102190.00;;;10.48;69.09
9110;BME280;4590;51.462;6.692;2023-02-03T07:26:27;102185.03;;;10.45;69.00
9110;BME280;4590;51.462;6.692;2023-02-03T07:28:52;102178.97;;;10.48;69.28
9110;BME280;4590;51.462;6.692;2023-02-03T07:31:18;102200.72;;;10.49;68.94
9110;BME280;4590;51.462;6.692;2023-02-03T07:33:44;102197.44;;;10.52;68.65
9110;BME280;4590;51.462;6.692;2023-02-03T07:36:09;102189.19;;;10.52;68.96
9110;BME280;4590;51.462;6.692;2023-02-03T07:38:35;102186.16;;;10.54;68.82
9110;BME280;4590;51.462;6.692;2023-02-03T07:41:02;102198.81;;;10.55;69.19
9110;BME280;4590;51.462;6.692;2023-02-03T07:43:28;102201.56;;;10.55;69.16
9110;BME280;4590;51.462;6.692;2023-02-03T07:45:53;102205.97;;;10.56;68.94
9110;BME280;4590;51.462;6.692;2023-02-03T07:48:18;102207.88;;;10.55;68.80
9110;BME280;4590;51.462;6.692;2023-02-03T07:50:43;102205.13;;;10.55;68.60
9110;BME280;4590;51.462;6.692;2023-02-03T07:53:09;102203.22;;;10.56;68.68
9110;BME280;4590;51.462;6.692;2023-02-03T07:55:37;102201.28;;;10.57;68.34
9110;BME280;4590;51.462;6.692;2023-02-03T07:58:02;102211.47;;;10.51;68.77
9110;BME280;4590;51.462;6.692;2023-02-03T08:00:27;102215.31;;;10.55;68.35
9110;BME280;4590;51.462;6.692;2023-02-03T08:02:52;102215.03;;;10.57;68.49
9110;BME280;4590;51.462;6.692;2023-02-03T08:05:18;102224.13;;;10.52;68.84
9110;BME280;4590;51.462;6.692;2023-02-03T08:07:44;102226.34;;;10.60;68.45
9110;BME280;4590;51.462;6.692;2023-02-03T08:10:11;102231.31;;;10.63;68.43
9110;BME280;4590;51.462;6.692;2023-02-03T08:12:37;102222.78;;;10.65;68.86
9110;BME280;4590;51.462;6.692;2023-02-03T08:15:03;102228.31;;;10.65;68.29
9110;BME280;4590;51.462;6.692;2023-02-03T08:17:29;102223.88;;;10.59;68.53
9110;BME280;4590;51.462;6.692;2023-02-03T08:19:54;102225.81;;;10.63;68.83
9110;BME280;4590;51.462;6.692;2023-02-03T08:22:20;102227.44;;;10.59;68.85
9110;BME280;4590;51.462;6.692;2023-02-03T08:24:46;102231.03;;;10.60;68.44
9110;BME280;4590;51.462;6.692;2023-02-03T08:27:13;102231.59;;;10.62;68.37
9110;BME280;4590;51.462;6.692;2023-02-03T08:29:39;102246.44;;;10.61;68.44
9110;BME280;4590;51.462;6.692;2023-02-03T08:32:06;102249.50;;;10.64;68.23
9110;BME280;4590;51.462;6.692;2023-02-03T08:34:32;102247.31;;;10.66;68.49
9110;BME280;4590;51.462;6.692;2023-02-03T08:36:58;102231.31;;;10.63;68.82
9110;BME280;4590;51.462;6.692;2023-02-03T08:39:23;102240.97;;;10.66;68.26
9110;BME280;4590;51.462;6.692;2023-02-03T08:41:49;102236.28;;;10.66;68.74
9110;BME280;4590;51.462;6.692;2023-02-03T08:44:14;102235.47;;;10.66;68.42
9110;BME280;4590;51.462;6.692;2023-02-03T08:46:39;102243.16;;;10.64;68.30
9110;BME280;4590;51.462;6.692;2023-02-03T08:49:09;102246.47;;;10.66;68.28
9110;BME280;4590;51.462;6.692;2023-02-03T08:51:34;102248.38;;;10.60;68.77
9110;BME280;4590;51.462;6.692;2023-02-03T08:54:00;102242.63;;;10.67;68.56
9110;BME280;4590;51.462;6.692;2023-02-03T08:56:26;102253.09;;;10.70;68.41
9110;BME280;4590;51.462;6.692;2023-02-03T08:58:51;102255.78;;;10.60;68.40
9110;BME280;4590;51.462;6.692;2023-02-03T09:01:17;102250.34;;;10.70;68.90
9110;BME280;4590;51.462;6.692;2023-02-03T09:03:42;102246.19;;;10.67;68.68
9110;BME280;4590;51.462;6.692;2023-02-03T09:06:09;102239.59;;;10.68;68.82
9110;BME280;4590;51.462;6.692;2023-02-03T09:08:37;102240.44;;;10.69;68.82
9110;BME280;4590;51.462;6.692;2023-02-03T09:11:08;102243.72;;;10.71;68.71
9110;BME280;4590;51.462;6.692;2023-02-03T09:13:33;102251.72;;;10.72;68.59
9110;BME280;4590;51.462;6.692;2023-02-03T09:15:59;102252.00;;;10.76;68.63
9110;BME280;4590;51.462;6.692;2023-02-03T09:18:25;102252.25;;;10.74;68.58
9110;BME280;4590;51.462;6.692;2023-02-03T09:20:50;102256.69;;;10.75;68.47
9110;BME280;4590;51.462;6.692;2023-02-03T09:23:15;102253.66;;;10.77;68.46
9110;BME280;4590;51.462;6.692;2023-02-03T09:25:40;102262.47;;;10.79;68.14
9110;BME280;4590;51.462;6.692;2023-02-03T09:28:06;102265.78;;;10.81;68.58
9110;BME280;4590;51.462;6.692;2023-02-03T09:30:31;102257.53;;;10.81;68.89
9110;BME280;4590;51.462;6.692;2023-02-03T09:32:56;102257.50;;;10.76;68.87
9110;BME280;4590;51.462;6.692;2023-02-03T09:35:23;102253.94;;;10.80;68.56
9110;BME280;4590;51.462;6.692;2023-02-03T09:37:48;102267.72;;;10.80;69.15
9110;BME280;4590;51.462;6.692;2023-02-03T09:40:33;102263.28;;;10.74;68.22
9110;BME280;4590;51.462;6.692;2023-02-03T09:45:46;102263.28;;;10.74;68.84
9110;BME280;4590;51.462;6.692;2023-02-03T09:48:15;102260.53;;;10.74;68.76
9110;BME280;4590;51.462;6.692;2023-02-03T09:50:43;102259.75;;;10.84;69.05
9110;BME280;4590;51.462;6.692;2023-02-03T09:53:26;102262.44;;;10.69;69.21
9110;BME280;4590;51.462;6.692;2023-02-03T09:55:53;102274.88;;;10.86;68.87
9110;BME280;4590;51.462;6.692;2023-02-03T09:58:19;102271.59;;;10.89;68.70
9110;BME280;4590;51.462;6.692;2023-02-03T10:00:50;102242.94;;;10.90;68.62
9110;BME280;4590;51.462;6.692;2023-02-03T10:03:24;102243.50;;;10.93;68.80
9110;BME280;4590;51.462;6.692;2023-02-03T10:06:00;102250.41;;;10.95;68.55
9110;BME280;4590;51.462;6.692;2023-02-03T10:08:51;102248.19;;;10.92;68.72
9110;BME280;4590;51.462;6.692;2023-02-03T10:14:37;102259.47;;;10.90;68.31
9110;BME280;4590;51.462;6.692;2023-02-03T10:20:14;102258.69;;;11.05;68.78
9110;BME280;4590;51.462;6.692;2023-02-03T10:22:47;102252.09;;;11.11;68.72
9110;BME280;4590;51.462;6.692;2023-02-03T10:25:18;102255.13;;;11.15;68.37
9110;BME280;4590;51.462;6.692;2023-02-03T10:27:50;102263.66;;;11.18;68.64
9110;BME280;4590;51.462;6.692;2023-02-03T10:30:23;102265.59;;;11.13;68.43
9110;BME280;4590;51.462;6.692;2023-02-03T10:32:59;102272.47;;;11.10;68.72
9110;BME280;4590;51.462;6.692;2023-02-03T10:38:24;102266.41;;;11.18;68.36
9110;BME280;4590;51.462;6.692;2023-02-03T10:40:51;102275.81;;;11.28;68.45
9110;BME280;4590;51.462;6.692;2023-02-03T10:43:17;102265.88;;;11.27;68.51
9110;BME280;4590;51.462;6.692;2023-02-03T10:46:01;102262.28;;;11.26;68.79
9110;BME280;4590;51.462;6.692;2023-02-03T10:48:26;102264.22;;;11.25;68.55
9110;BME280;4590;51.462;6.692;2023-02-03T10:50:52;102262.56;;;11.19;69.09
9110;BME280;4590;51.462;6.692;2023-02-03T10:53:25;102253.50;;;11.29;68.36
9110;BME280;4590;51.462;6.692;2023-02-03T10:55:59;102256.22;;;11.14;68.60
9110;BME280;4590;51.462;6.692;2023-02-03T10:58:27;102254.88;;;11.32;68.79
9110;BME280;4590;51.462;6.692;2023-02-03T11:01:04;102263.13;;;11.27;68.40
9110;BME280;4590;51.462;6.692;2023-02-03T11:03:30;102253.50;;;11.29;68.69
9110;BME280;4590;51.462;6.692;2023-02-03T11:08:36;102258.97;;;11.09;69.27
9110;BME280;4590;51.462;6.692;2023-02-03T11:11:05;102268.88;;;11.20;68.92
9110;BME280;4590;51.462;6.692;2023-02-03T11:13:31;102272.50;;;11.25;68.94
9110;BME280;4590;51.462;6.692;2023-02-03T11:15:59;102276.06;;;11.21;68.70
9110;BME280;4590;51.462;6.692;2023-02-03T11:19:21;102282.16;;;11.28;68.38
9110;BME280;4590;51.462;6.692;2023-02-03T11:21:25;102272.75;;;11.34;68.62
9110;BME280;4590;51.462;6.692;2023-02-03T11:24:00;102281.34;;;11.33;68.55
9110;BME280;4590;51.462;6.692;2023-02-03T11:26:33;102270.84;;;11.40;68.30
9110;BME280;4590;51.462;6.692;2023-02-03T11:29:01;102286.28;;;11.36;68.76
9110;BME280;4590;51.462;6.692;2023-02-03T11:31:30;102304.16;;;11.23;68.95
9110;BME280;4590;51.462;6.692;2023-02-03T11:34:03;102293.97;;;11.18;68.56
9110;BME280;4590;51.462;6.692;2023-02-03T11:36:31;102301.44;;;11.28;69.05
9110;BME280;4590;51.462;6.692;2023-02-03T11:39:29;102296.47;;;11.30;68.62
9110;BME280;4590;51.462;6.692;2023-02-03T11:42:01;102284.34;;;11.41;68.35
9110;BME280;4590;51.462;6.692;2023-02-03T11:44:29;102280.50;;;11.42;68.61
9110;BME280;4590;51.462;6.692;2023-02-03T11:47:14;102290.13;;;11.30;68.51
9110;BME280;4590;51.462;6.692;2023-02-03T12:06:29;102295.66;;;11.40;68.85
9110;BME280;4590;51.462;6.692;2023-02-03T12:09:06;102285.47;;;11.40;69.21
9110;BME280;4590;51.462;6.692;2023-02-03T12:11:58;102287.09;;;11.51;68.86
9110;BME280;4590;51.462;6.692;2023-02-03T12:14:48;102298.16;;;11.46;68.73
9110;BME280;4590;51.462;6.692;2023-02-03T12:17:54;102293.72;;;11.55;69.43
9110;BME280;4590;51.462;6.692;2023-02-03T12:31:36;102305.06;;;11.64;68.15
9110;BME280;4590;51.462;6.692;2023-02-03T12:34:11;102310.56;;;11.64;68.54
9110;BME280;4590;51.462;6.692;2023-02-03T12:36:46;102294.28;;;11.73;68.57
9110;BME280;4590;51.462;6.692;2023-02-03T12:42:02;102302.56;;;11.68;68.69
9110;BME280;4590;51.462;6.692;2023-02-03T12:45:07;102305.31;;;11.52;68.65
9110;BME280;4590;51.462;6.692;2023-02-03T12:47:45;102302.56;;;11.63;68.77
9110;BME280;4590;51.462;6.692;2023-02-03T12:50:28;102303.09;;;11.70;68.27
9110;BME280;4590;51.462;6.692;2023-02-03T12:53:01;102306.41;;;11.72;68.23
9110;BME280;4590;51.462;6.692;2023-02-03T12:55:34;102311.09;;;11.66;68.62
9110;BME280;4590;51.462;6.692;2023-02-03T12:58:05;102309.75;;;11.64;69.00
9110;BME280;4590;51.462;6.692;2023-02-03T13:03:19;102300.94;;;11.77;68.33
9110;BME280;4590;51.462;6.692;2023-02-03T13:06:03;102302.56;;;11.63;69.25
9110;BME280;4590;51.462;6.692;2023-02-03T13:11:22;102306.69;;;11.65;69.01
9110;BME280;4590;51.462;6.692;2023-02-03T13:13:54;102305.31;;;11.73;68.73
9110;BME280;4590;51.462;6.692;2023-02-03T13:16:25;102300.13;;;11.76;68.55
9110;BME280;4590;51.462;6.692;2023-02-03T13:18:56;102304.22;;;11.74;68.95
9110;BME280;4590;51.462;6.692;2023-02-03T13:21:23;102300.66;;;11.63;69.50
9110;BME280;4590;51.462;6.692;2023-02-03T13:23:49;102289.59;;;11.73;69.23
9110;BME280;4590;51.462;6.692;2023-02-03T13:42:56;102274.47;;;11.76;68.81
9110;BME280;4590;51.462;6.692;2023-02-03T13:45:27;102271.69;;;11.81;68.72
9110;BME280;4590;51.462;6.692;2023-02-03T13:47:56;102291.00;;;11.81;68.67
9110;BME280;4590;51.462;6.692;2023-02-03T13:50:27;102292.09;;;11.75;69.04
9110;BME280;4590;51.462;6.692;2023-02-03T13:53:01;102295.66;;;11.75;68.46
9110;BME280;4590;51.462;6.692;2023-02-03T13:55:42;102296.50;;;11.81;68.56
9110;BME280;4590;51.462;6.692;2023-02-03T13:58:20;102303.38;;;11.68;68.65
9110;BME280;4590;51.462;6.692;2023-02-03T14:05:55;102293.50;;;11.77;68.74
9110;BME280;4590;51.462;6.692;2023-02-03T14:16:35;102314.16;;;11.90;68.36
9110;BME280;4590;51.462;6.692;2023-02-03T14:19:01;102313.34;;;11.84;68.28
9110;BME280;4590;51.462;6.692;2023-02-03T14:21:28;102334.84;;;11.87;68.39
9110;BME280;4590;51.462;6.692;2023-02-03T14:24:04;102334.56;;;11.84;68.87
9110;BME280;4590;51.462;6.692;2023-02-03T14:26:38;102357.75;;;11.78;68.85
9110;BME280;4590;51.462;6.692;2023-02-03T14:29:07;102357.41;;;11.54;68.89
9110;BME280;4590;51.462;6.692;2023-02-03T14:34:17;102367.28;;;11.30;69.16
9110;BME280;4590;51.462;6.692;2023-02-03T14:36:46;102366.13;;;11.10;69.91
9110;BME280;4590;51.462;6.692;2023-02-03T14:47:22;102383.66;;;10.84;69.93
9110;BME280;4590;51.462;6.692;2023-02-03T14:55:44;102386.59;;;10.67;70.75
9110;BME280;4590;51.462;6.692;2023-02-03T14:58:40;102402.56;;;10.65;70.78
9110;BME280;4590;51.462;6.692;2023-02-03T15:01:23;102409.16;;;10.64;70.62
9110;BME280;4590;51.462;6.692;2023-02-03T15:06:44;102425.41;;;10.66;70.81
9110;BME280;4590;51.462;6.692;2023-02-03T15:09:45;102424.84;;;10.64;71.46
9110;BME280;4590;51.462;6.692;2023-02-03T15:14:40;102424.84;;;10.64;71.89
9110;BME280;4590;51.462;6.692;2023-02-03T15:17:24;102426.72;;;10.58;72.29
9110;BME280;4590;51.462;6.692;2023-02-03T15:19:50;102419.03;;;10.60;71.96
9110;BME280;4590;51.462;6.692;2023-02-03T15:22:27;102426.22;;;10.66;71.38
9110;BME280;4590;51.462;6.692;2023-02-03T15:24:57;102426.75;;;10.63;72.13